Carat — 9HA4131 — position and weather

sailwx.info

Track history (hours):
 
Tides and Currents Weather Stations Pressure Air Temp Water Temp Dewpoint Dewpoint Depression Visibility Wind Speed Wind Dir Waves Ship Positions

Carat

Last reported at 2017-Sep-21 23:23 UTC. Time now 2017-Sep-22 22:25 UTC.
Position N 39°37' E 024°04'.

Length 141 m; draft 8.8 m.

Type: Ship (hazmat cat A). MMSI: 249163000.

Date/timePositionNaut miles runAvg speedWind from/ knotsBaromVisibWave heightAir tempDewpointWater temp
2017-Sep-21 23:23N 39°37' E 024°04'513.0
2017-Sep-21 22:58N 39°35' E 024°10'50211.1
2017-Sep-20 01:41N 35°48' E 014°45'213.9
2017-Sep-20 01:30N 35°48' E 014°42'8 0.7
2017-Sep-19 15:12N 35°49' E 014°32'0 0.0
2017-Sep-19 14:42N 35°49' E 014°32'0 0.0
2017-Sep-19 03:48N 35°49' E 014°32'0 0.0
2017-Sep-18 18:19N 35°49' E 014°32'1 2.2
2017-Sep-18 17:58N 35°49' E 014°33'4 8.2
2017-Sep-18 17:30N 35°49' E 014°38'4 7.1
2017-Sep-18 17:00N 35°51' E 014°42'1 1.0
2017-Sep-18 16:22N 35°51' E 014°43'0 0.0
2017-Sep-18 13:07N 35°51' E 014°43'0 0.1
2017-Sep-18 12:55N 35°51' E 014°43'0 0.0
2017-Sep-18 12:22N 35°51' E 014°43'0 0.0
2017-Sep-18 11:22N 35°51' E 014°43'0 0.0
2017-Sep-18 09:01N 35°51' E 014°43'0 0.0
2017-Sep-18 08:55N 35°51' E 014°43'0 0.0
2017-Sep-18 08:25N 35°51' E 014°43'0 0.0
2017-Sep-18 07:58N 35°51' E 014°43'0 0.0
2017-Sep-18 07:28N 35°51' E 014°43'0 0.0
2017-Sep-18 06:58N 35°51' E 014°43'0 0.0
2017-Sep-18 06:28N 35°51' E 014°43'0 0.0
2017-Sep-18 05:58N 35°51' E 014°43'0 0.0
2017-Sep-18 05:25N 35°51' E 014°43'0 0.0
2017-Sep-18 04:58N 35°51' E 014°43'0 0.0
2017-Sep-18 04:28N 35°51' E 014°43'0 0.0
2017-Sep-18 03:58N 35°51' E 014°43'0 0.0
2017-Sep-18 03:25N 35°51' E 014°43'0 0.0
2017-Sep-18 02:58N 35°51' E 014°43'0 0.0
2017-Sep-18 02:28N 35°51' E 014°43'0 0.0
2017-Sep-18 01:01N 35°51' E 014°43'0 0.2
2017-Sep-18 00:58N 35°51' E 014°43'0 0.0
2017-Sep-18 00:28N 35°51' E 014°43'0 0.0
2017-Sep-17 23:58N 35°51' E 014°43'0 0.0
2017-Sep-17 23:22N 35°51' E 014°43'0 0.0
2017-Sep-17 22:58N 35°51' E 014°43'0 0.0
2017-Sep-17 22:28N 35°51' E 014°43'0 0.0
2017-Sep-17 21:58N 35°51' E 014°43'0 0.0
2017-Sep-17 21:28N 35°51' E 014°43'0 0.1
2017-Sep-17 20:58N 35°51' E 014°43'0 0.0
2017-Sep-17 20:28N 35°51' E 014°43'0 0.0
2017-Sep-17 19:52N 35°51' E 014°43'0 0.0
2017-Sep-17 19:28N 35°51' E 014°43'0 0.0
2017-Sep-17 18:52N 35°51' E 014°43'0 0.1
2017-Sep-17 18:25N 35°51' E 014°43'0 0.1
2017-Sep-17 17:52N 35°51' E 014°43'0 0.1
2017-Sep-17 17:30N 35°51' E 014°43'0 0.1
2017-Sep-17 16:59N 35°51' E 014°43'0 0.3
2017-Sep-17 16:29N 35°51' E 014°43'0 0.0
2017-Sep-17 15:59N 35°51' E 014°43'0 0.0
2017-Sep-17 15:26N 35°51' E 014°43'0 0.0
2017-Sep-17 14:59N 35°51' E 014°43'0 0.0
2017-Sep-17 14:29N 35°51' E 014°43'0 0.0
2017-Sep-17 13:59N 35°51' E 014°43'0 0.0
2017-Sep-17 13:29N 35°51' E 014°43'0 0.0
2017-Sep-17 12:59N 35°51' E 014°43'0 0.0
2017-Sep-17 12:29N 35°51' E 014°43'0 0.0
2017-Sep-17 11:59N 35°51' E 014°43'0 0.0
2017-Sep-17 11:26N 35°51' E 014°43'0 0.0
2017-Sep-17 10:59N 35°51' E 014°43'0 0.0
2017-Sep-17 10:26N 35°51' E 014°43'0 0.0
2017-Sep-17 09:59N 35°51' E 014°43'0 0.0
2017-Sep-17 09:29N 35°51' E 014°43'0 0.0
2017-Sep-17 08:59N 35°51' E 014°43'0 0.0
2017-Sep-17 08:26N 35°51' E 014°43'0 0.0
2017-Sep-17 07:59N 35°51' E 014°43'0 0.0
2017-Sep-17 07:29N 35°51' E 014°43'0 0.0
2017-Sep-17 06:56N 35°51' E 014°43'0 0.1
2017-Sep-17 06:29N 35°51' E 014°43'0 0.1
2017-Sep-17 05:59N 35°51' E 014°43'0 0.0
2017-Sep-17 05:29N 35°51' E 014°43'0 0.0
2017-Sep-17 04:59N 35°51' E 014°43'0 0.0
2017-Sep-17 04:29N 35°51' E 014°43'0 0.0
2017-Sep-17 03:59N 35°51' E 014°43'0 0.0
2017-Sep-17 03:29N 35°51' E 014°43'0 0.0
2017-Sep-17 02:59N 35°51' E 014°43'0 0.0
2017-Sep-17 02:29N 35°51' E 014°43'0 0.0
2017-Sep-17 01:59N 35°51' E 014°43'0 0.0
2017-Sep-17 01:29N 35°51' E 014°43'0 0.0
2017-Sep-17 00:59N 35°51' E 014°43'0 0.0
2017-Sep-17 00:29N 35°51' E 014°43'0 0.0
2017-Sep-16 23:59N 35°51' E 014°43'0 0.0
2017-Sep-16 23:29N 35°51' E 014°43'0 0.0
2017-Sep-16 22:59N 35°51' E 014°43'0 0.0
2017-Sep-16 22:29N 35°51' E 014°43'0 0.0
2017-Sep-16 21:59N 35°51' E 014°43'0 0.0
2017-Sep-16 21:29N 35°51' E 014°43'0 0.0
2017-Sep-16 20:56N 35°51' E 014°43'0 0.0
2017-Sep-16 20:26N 35°51' E 014°43'0 0.0
2017-Sep-16 19:59N 35°51' E 014°43'0 0.0
2017-Sep-16 19:29N 35°51' E 014°43'0 0.0
2017-Sep-16 18:56N 35°51' E 014°43'0 0.0
2017-Sep-16 18:29N 35°51' E 014°43'0 0.0
2017-Sep-16 17:59N 35°51' E 014°43'0 0.0
2017-Sep-16 17:29N 35°51' E 014°43'0 0.0
2017-Sep-16 16:59N 35°51' E 014°43'0 0.0
2017-Sep-16 16:29N 35°51' E 014°43'0 0.0
2017-Sep-16 15:59N 35°51' E 014°43'0 0.0
2017-Sep-16 15:29N 35°51' E 014°43'0 0.0
2017-Sep-16 14:59N 35°51' E 014°43'0 0.0
2017-Sep-16 14:29N 35°51' E 014°43'0 0.0
2017-Sep-16 13:59N 35°51' E 014°43'0 0.0
2017-Sep-16 13:29N 35°51' E 014°43'0 0.0
2017-Sep-16 12:59N 35°51' E 014°43'0 0.0
2017-Sep-16 12:29N 35°51' E 014°43'0 0.0
2017-Sep-16 11:59N 35°51' E 014°43'0 0.0
2017-Sep-16 11:29N 35°51' E 014°43'0 0.0
2017-Sep-16 10:59N 35°51' E 014°43'0 0.0
2017-Sep-16 10:26N 35°51' E 014°43'0 0.0
2017-Sep-16 09:59N 35°51' E 014°43'0 0.0
2017-Sep-16 09:29N 35°51' E 014°43'0 0.0
2017-Sep-16 08:59N 35°51' E 014°43'0 0.0
2017-Sep-16 08:29N 35°51' E 014°43'0 0.0
2017-Sep-16 07:59N 35°51' E 014°43'0 0.0
2017-Sep-16 07:29N 35°51' E 014°43'0 0.0
2017-Sep-16 06:59N 35°51' E 014°43'0 0.1
2017-Sep-16 06:29N 35°51' E 014°43'0 0.1
2017-Sep-16 05:56N 35°51' E 014°43'0 0.1
2017-Sep-16 05:29N 35°51' E 014°43'0 0.1
2017-Sep-16 04:53N 35°51' E 014°43'0 0.1
2017-Sep-16 04:29N 35°51' E 014°43'0 0.1
2017-Sep-16 03:59N 35°51' E 014°43'0 0.1
2017-Sep-16 03:29N 35°51' E 014°43'0 0.0
2017-Sep-16 02:59N 35°51' E 014°43'0 0.0
2017-Sep-16 02:29N 35°51' E 014°43'0 0.0
2017-Sep-16 01:59N 35°51' E 014°43'0 0.0
2017-Sep-16 01:29N 35°51' E 014°43'0 0.1
2017-Sep-16 00:59N 35°51' E 014°43'0 0.0
2017-Sep-16 00:29N 35°51' E 014°43'0 0.0
2017-Sep-15 23:59N 35°51' E 014°43'0 0.0
2017-Sep-15 23:29N 35°51' E 014°43'0 0.1
2017-Sep-15 22:59N 35°51' E 014°43'0 0.0
2017-Sep-15 22:29N 35°51' E 014°43'0 0.0
2017-Sep-15 21:59N 35°51' E 014°43'0 0.0
2017-Sep-15 21:29N 35°51' E 014°43'0 0.0
2017-Sep-15 20:59N 35°51' E 014°43'0 0.0
2017-Sep-15 20:29N 35°51' E 014°43'0 0.0
2017-Sep-15 19:59N 35°51' E 014°43'0 0.0
2017-Sep-15 19:29N 35°51' E 014°43'0 0.0
2017-Sep-15 18:59N 35°51' E 014°43'0 0.0
2017-Sep-15 18:29N 35°51' E 014°43'0 0.0
2017-Sep-15 17:59N 35°51' E 014°43'0 0.1
2017-Sep-15 17:29N 35°51' E 014°43'0 0.1
2017-Sep-15 16:59N 35°51' E 014°43'0 0.1
2017-Sep-15 16:29N 35°51' E 014°43'0 0.0
2017-Sep-15 15:59N 35°51' E 014°43'0 0.0
2017-Sep-15 15:29N 35°51' E 014°43'0 0.0
2017-Sep-15 14:59N 35°51' E 014°43'0 0.1
2017-Sep-15 14:29N 35°51' E 014°43'0 0.0
2017-Sep-15 13:59N 35°51' E 014°43'0 0.0
2017-Sep-15 13:29N 35°51' E 014°43'0 0.0
2017-Sep-15 12:59N 35°51' E 014°43'0 0.0
2017-Sep-15 12:29N 35°51' E 014°43'0 0.0
2017-Sep-15 11:59N 35°51' E 014°43'0 0.0
2017-Sep-15 11:29N 35°51' E 014°43'0 0.0
2017-Sep-15 10:59N 35°51' E 014°43'0 0.0
2017-Sep-15 10:29N 35°51' E 014°43'0 0.0
2017-Sep-15 09:59N 35°51' E 014°43'0 0.0
2017-Sep-15 09:29N 35°51' E 014°43'0 0.0
2017-Sep-15 08:59N 35°51' E 014°43'0 0.1
2017-Sep-15 08:29N 35°51' E 014°43'1 1.0
2017-Sep-15 08:00N 35°51' E 014°43'611.4
2017-Sep-15 07:30N 35°50' E 014°50'612.5
2017-Sep-15 07:00N 35°50' E 014°58'612.5
2017-Sep-15 06:30N 35°50' E 015°06'612.4
2017-Sep-15 06:00N 35°50' E 015°13'612.4
2017-Sep-15 05:30N 35°51' E 015°21'612.5
2017-Sep-15 05:00N 35°51' E 015°29'612.6
2017-Sep-15 04:30N 35°52' E 015°36'612.3
2017-Sep-15 04:00N 35°52' E 015°44'612.2
2017-Sep-15 03:30N 35°53' E 015°52'712.5
2017-Sep-15 02:56N 35°53' E 016°00'612.7
2017-Sep-15 02:26N 35°54' E 016°08'612.8
2017-Sep-15 01:58N 35°54' E 016°16'612.6
2017-Sep-15 01:30N 35°55' E 016°23'612.4
2017-Sep-15 01:00N 35°55' E 016°30'7512.0
2017-Sep-14 18:43N 36°01' E 018°03'311.8
2017-Sep-14 18:28N 36°02' E 018°07'511.9
2017-Sep-14 18:00N 36°02' E 018°13'26011.7
2017-Sep-13 19:40N 36°50' E 023°32'1212.3
2017-Sep-13 18:40N 37°02' E 023°35'312.0
2017-Sep-13 18:26N 37°04' E 023°36'511.7
2017-Sep-13 17:58N 37°10' E 023°37'1012.3
2017-Sep-13 17:09N 37°20' E 023°39'212.4
2017-Sep-13 17:00N 37°21' E 023°39'612.1
2017-Sep-13 16:30N 37°27' E 023°40'612.1
2017-Sep-13 15:59N 37°34' E 023°42'612.2
2017-Sep-13 15:30N 37°39' E 023°42'612.7
2017-Sep-13 15:00N 37°45' E 023°39'612.8
2017-Sep-13 14:30N 37°51' E 023°37'510.4
2017-Sep-13 14:00N 37°56' E 023°36'1 1.7
2017-Sep-13 13:30N 37°57' E 023°36'0 0.0
2017-Sep-13 13:00N 37°57' E 023°36'0 0.0
2017-Sep-13 12:30N 37°57' E 023°36'0 0.0
2017-Sep-13 12:00N 37°57' E 023°36'0 0.0
2017-Sep-13 11:30N 37°57' E 023°36'0 0.0
2017-Sep-13 11:00N 37°57' E 023°36'0 0.0
2017-Sep-13 10:30N 37°57' E 023°36'0 0.0
2017-Sep-13 10:00N 37°57' E 023°36'0 0.0
2017-Sep-13 09:30N 37°57' E 023°36'0 0.0
2017-Sep-13 09:00N 37°57' E 023°36'0 0.0
2017-Sep-13 08:30N 37°57' E 023°36'0 0.0
2017-Sep-13 08:00N 37°57' E 023°36'0 0.0
2017-Sep-13 07:30N 37°57' E 023°36'0 0.0
2017-Sep-13 07:00N 37°57' E 023°36'0 0.0
2017-Sep-13 06:30N 37°57' E 023°36'0 0.0
2017-Sep-13 06:00N 37°57' E 023°36'0 0.0
2017-Sep-13 05:30N 37°57' E 023°36'0 0.3
2017-Sep-13 05:00N 37°57' E 023°36'3 6.4
2017-Sep-13 04:30N 37°54' E 023°35'1 2.1
2017-Sep-13 04:00N 37°53' E 023°35'1 2.4
2017-Sep-13 03:30N 37°52' E 023°36'2 3.1
2017-Sep-13 03:00N 37°51' E 023°38'2 4.8
2017-Sep-13 02:30N 37°50' E 023°40'3 6.3
2017-Sep-13 02:00N 37°47' E 023°42'5 9.1
2017-Sep-13 01:30N 37°43' E 023°44'510.3
2017-Sep-13 00:59N 37°38' E 023°48'611.9
2017-Sep-13 00:30N 37°37' E 023°55'121 9.4
2017-Sep-12 11:44N 39°37' E 024°06'  
Track history (hours):
 
Tides and Currents Weather Stations Pressure Air Temp Water Temp Dewpoint Dewpoint Depression Visibility Wind Speed Wind Dir Waves Ship Positions

Carat

Last reported at 2017-Sep-21 23:23 UTC. Time now 2017-Sep-22 22:25 UTC.
Position N 39°37' E 024°04'.

Length 141 m; draft 8.8 m.

Type: Ship (hazmat cat A). MMSI: 249163000.

Date/timePositionNaut miles runAvg speedWind from/ knotsBaromVisibWave heightAir tempDewpointWater temp
2017-Sep-21 23:23N 39°37' E 024°04'513.0
2017-Sep-21 22:58N 39°35' E 024°10'50211.1
2017-Sep-20 01:41N 35°48' E 014°45'213.9
2017-Sep-20 01:30N 35°48' E 014°42'8 0.7
2017-Sep-19 15:12N 35°49' E 014°32'0 0.0
2017-Sep-19 14:42N 35°49' E 014°32'0 0.0
2017-Sep-19 03:48N 35°49' E 014°32'0 0.0
2017-Sep-18 18:19N 35°49' E 014°32'1 2.2
2017-Sep-18 17:58N 35°49' E 014°33'4 8.2
2017-Sep-18 17:30N 35°49' E 014°38'4 7.1
2017-Sep-18 17:00N 35°51' E 014°42'1 1.0
2017-Sep-18 16:22N 35°51' E 014°43'0 0.0
2017-Sep-18 13:07N 35°51' E 014°43'0 0.1
2017-Sep-18 12:55N 35°51' E 014°43'0 0.0
2017-Sep-18 12:22N 35°51' E 014°43'0 0.0
2017-Sep-18 11:22N 35°51' E 014°43'0 0.0
2017-Sep-18 09:01N 35°51' E 014°43'0 0.0
2017-Sep-18 08:55N 35°51' E 014°43'0 0.0
2017-Sep-18 08:25N 35°51' E 014°43'0 0.0
2017-Sep-18 07:58N 35°51' E 014°43'0 0.0
2017-Sep-18 07:28N 35°51' E 014°43'0 0.0
2017-Sep-18 06:58N 35°51' E 014°43'0 0.0
2017-Sep-18 06:28N 35°51' E 014°43'0 0.0
2017-Sep-18 05:58N 35°51' E 014°43'0 0.0
2017-Sep-18 05:25N 35°51' E 014°43'0 0.0
2017-Sep-18 04:58N 35°51' E 014°43'0 0.0
2017-Sep-18 04:28N 35°51' E 014°43'0 0.0
2017-Sep-18 03:58N 35°51' E 014°43'0 0.0
2017-Sep-18 03:25N 35°51' E 014°43'0 0.0
2017-Sep-18 02:58N 35°51' E 014°43'0 0.0
2017-Sep-18 02:28N 35°51' E 014°43'0 0.0
2017-Sep-18 01:01N 35°51' E 014°43'0 0.2
2017-Sep-18 00:58N 35°51' E 014°43'0 0.0
2017-Sep-18 00:28N 35°51' E 014°43'0 0.0
2017-Sep-17 23:58N 35°51' E 014°43'0 0.0
2017-Sep-17 23:22N 35°51' E 014°43'0 0.0
2017-Sep-17 22:58N 35°51' E 014°43'0 0.0
2017-Sep-17 22:28N 35°51' E 014°43'0 0.0
2017-Sep-17 21:58N 35°51' E 014°43'0 0.0
2017-Sep-17 21:28N 35°51' E 014°43'0 0.1
2017-Sep-17 20:58N 35°51' E 014°43'0 0.0
2017-Sep-17 20:28N 35°51' E 014°43'0 0.0
2017-Sep-17 19:52N 35°51' E 014°43'0 0.0
2017-Sep-17 19:28N 35°51' E 014°43'0 0.0
2017-Sep-17 18:52N 35°51' E 014°43'0 0.1
2017-Sep-17 18:25N 35°51' E 014°43'0 0.1
2017-Sep-17 17:52N 35°51' E 014°43'0 0.1
2017-Sep-17 17:30N 35°51' E 014°43'0 0.1
2017-Sep-17 16:59N 35°51' E 014°43'0 0.3
2017-Sep-17 16:29N 35°51' E 014°43'0 0.0
2017-Sep-17 15:59N 35°51' E 014°43'0 0.0
2017-Sep-17 15:26N 35°51' E 014°43'0 0.0
2017-Sep-17 14:59N 35°51' E 014°43'0 0.0
2017-Sep-17 14:29N 35°51' E 014°43'0 0.0
2017-Sep-17 13:59N 35°51' E 014°43'0 0.0
2017-Sep-17 13:29N 35°51' E 014°43'0 0.0
2017-Sep-17 12:59N 35°51' E 014°43'0 0.0
2017-Sep-17 12:29N 35°51' E 014°43'0 0.0
2017-Sep-17 11:59N 35°51' E 014°43'0 0.0
2017-Sep-17 11:26N 35°51' E 014°43'0 0.0
2017-Sep-17 10:59N 35°51' E 014°43'0 0.0
2017-Sep-17 10:26N 35°51' E 014°43'0 0.0
2017-Sep-17 09:59N 35°51' E 014°43'0 0.0
2017-Sep-17 09:29N 35°51' E 014°43'0 0.0
2017-Sep-17 08:59N 35°51' E 014°43'0 0.0
2017-Sep-17 08:26N 35°51' E 014°43'0 0.0
2017-Sep-17 07:59N 35°51' E 014°43'0 0.0
2017-Sep-17 07:29N 35°51' E 014°43'0 0.0
2017-Sep-17 06:56N 35°51' E 014°43'0 0.1
2017-Sep-17 06:29N 35°51' E 014°43'0 0.1
2017-Sep-17 05:59N 35°51' E 014°43'0 0.0
2017-Sep-17 05:29N 35°51' E 014°43'0 0.0
2017-Sep-17 04:59N 35°51' E 014°43'0 0.0
2017-Sep-17 04:29N 35°51' E 014°43'0 0.0
2017-Sep-17 03:59N 35°51' E 014°43'0 0.0
2017-Sep-17 03:29N 35°51' E 014°43'0 0.0
2017-Sep-17 02:59N 35°51' E 014°43'0 0.0
2017-Sep-17 02:29N 35°51' E 014°43'0 0.0
2017-Sep-17 01:59N 35°51' E 014°43'0 0.0
2017-Sep-17 01:29N 35°51' E 014°43'0 0.0
2017-Sep-17 00:59N 35°51' E 014°43'0 0.0
2017-Sep-17 00:29N 35°51' E 014°43'0 0.0
2017-Sep-16 23:59N 35°51' E 014°43'0 0.0
2017-Sep-16 23:29N 35°51' E 014°43'0 0.0
2017-Sep-16 22:59N 35°51' E 014°43'0 0.0
2017-Sep-16 22:29N 35°51' E 014°43'0 0.0
2017-Sep-16 21:59N 35°51' E 014°43'0 0.0
2017-Sep-16 21:29N 35°51' E 014°43'0 0.0
2017-Sep-16 20:56N 35°51' E 014°43'0 0.0
2017-Sep-16 20:26N 35°51' E 014°43'0 0.0
2017-Sep-16 19:59N 35°51' E 014°43'0 0.0
2017-Sep-16 19:29N 35°51' E 014°43'0 0.0
2017-Sep-16 18:56N 35°51' E 014°43'0 0.0
2017-Sep-16 18:29N 35°51' E 014°43'0 0.0
2017-Sep-16 17:59N 35°51' E 014°43'0 0.0
2017-Sep-16 17:29N 35°51' E 014°43'0 0.0
2017-Sep-16 16:59N 35°51' E 014°43'0 0.0
2017-Sep-16 16:29N 35°51' E 014°43'0 0.0
2017-Sep-16 15:59N 35°51' E 014°43'0 0.0
2017-Sep-16 15:29N 35°51' E 014°43'0 0.0
2017-Sep-16 14:59N 35°51' E 014°43'0 0.0
2017-Sep-16 14:29N 35°51' E 014°43'0 0.0
2017-Sep-16 13:59N 35°51' E 014°43'0 0.0
2017-Sep-16 13:29N 35°51' E 014°43'0 0.0
2017-Sep-16 12:59N 35°51' E 014°43'0 0.0
2017-Sep-16 12:29N 35°51' E 014°43'0 0.0
2017-Sep-16 11:59N 35°51' E 014°43'0 0.0
2017-Sep-16 11:29N 35°51' E 014°43'0 0.0
2017-Sep-16 10:59N 35°51' E 014°43'0 0.0
2017-Sep-16 10:26N 35°51' E 014°43'0 0.0
2017-Sep-16 09:59N 35°51' E 014°43'0 0.0
2017-Sep-16 09:29N 35°51' E 014°43'0 0.0
2017-Sep-16 08:59N 35°51' E 014°43'0 0.0
2017-Sep-16 08:29N 35°51' E 014°43'0 0.0
2017-Sep-16 07:59N 35°51' E 014°43'0 0.0
2017-Sep-16 07:29N 35°51' E 014°43'0 0.0
2017-Sep-16 06:59N 35°51' E 014°43'0 0.1
2017-Sep-16 06:29N 35°51' E 014°43'0 0.1
2017-Sep-16 05:56N 35°51' E 014°43'0 0.1
2017-Sep-16 05:29N 35°51' E 014°43'0 0.1
2017-Sep-16 04:53N 35°51' E 014°43'0 0.1
2017-Sep-16 04:29N 35°51' E 014°43'0 0.1
2017-Sep-16 03:59N 35°51' E 014°43'0 0.1
2017-Sep-16 03:29N 35°51' E 014°43'0 0.0
2017-Sep-16 02:59N 35°51' E 014°43'0 0.0
2017-Sep-16 02:29N 35°51' E 014°43'0 0.0
2017-Sep-16 01:59N 35°51' E 014°43'0 0.0
2017-Sep-16 01:29N 35°51' E 014°43'0 0.1
2017-Sep-16 00:59N 35°51' E 014°43'0 0.0
2017-Sep-16 00:29N 35°51' E 014°43'0 0.0
2017-Sep-15 23:59N 35°51' E 014°43'0 0.0
2017-Sep-15 23:29N 35°51' E 014°43'0 0.1
2017-Sep-15 22:59N 35°51' E 014°43'0 0.0
2017-Sep-15 22:29N 35°51' E 014°43'0 0.0
2017-Sep-15 21:59N 35°51' E 014°43'0 0.0
2017-Sep-15 21:29N 35°51' E 014°43'0 0.0
2017-Sep-15 20:59N 35°51' E 014°43'0 0.0
2017-Sep-15 20:29N 35°51' E 014°43'0 0.0
2017-Sep-15 19:59N 35°51' E 014°43'0 0.0
2017-Sep-15 19:29N 35°51' E 014°43'0 0.0
2017-Sep-15 18:59N 35°51' E 014°43'0 0.0
2017-Sep-15 18:29N 35°51' E 014°43'0 0.0
2017-Sep-15 17:59N 35°51' E 014°43'0 0.1
2017-Sep-15 17:29N 35°51' E 014°43'0 0.1
2017-Sep-15 16:59N 35°51' E 014°43'0 0.1
2017-Sep-15 16:29N 35°51' E 014°43'0 0.0
2017-Sep-15 15:59N 35°51' E 014°43'0 0.0
2017-Sep-15 15:29N 35°51' E 014°43'0 0.0
2017-Sep-15 14:59N 35°51' E 014°43'0 0.1
2017-Sep-15 14:29N 35°51' E 014°43'0 0.0
2017-Sep-15 13:59N 35°51' E 014°43'0 0.0
2017-Sep-15 13:29N 35°51' E 014°43'0 0.0
2017-Sep-15 12:59N 35°51' E 014°43'0 0.0
2017-Sep-15 12:29N 35°51' E 014°43'0 0.0
2017-Sep-15 11:59N 35°51' E 014°43'0 0.0
2017-Sep-15 11:29N 35°51' E 014°43'0 0.0
2017-Sep-15 10:59N 35°51' E 014°43'0 0.0
2017-Sep-15 10:29N 35°51' E 014°43'0 0.0
2017-Sep-15 09:59N 35°51' E 014°43'0 0.0
2017-Sep-15 09:29N 35°51' E 014°43'0 0.0
2017-Sep-15 08:59N 35°51' E 014°43'0 0.1
2017-Sep-15 08:29N 35°51' E 014°43'1 1.0
2017-Sep-15 08:00N 35°51' E 014°43'611.4
2017-Sep-15 07:30N 35°50' E 014°50'612.5
2017-Sep-15 07:00N 35°50' E 014°58'612.5
2017-Sep-15 06:30N 35°50' E 015°06'612.4
2017-Sep-15 06:00N 35°50' E 015°13'612.4
2017-Sep-15 05:30N 35°51' E 015°21'612.5
2017-Sep-15 05:00N 35°51' E 015°29'612.6
2017-Sep-15 04:30N 35°52' E 015°36'612.3
2017-Sep-15 04:00N 35°52' E 015°44'612.2
2017-Sep-15 03:30N 35°53' E 015°52'712.5
2017-Sep-15 02:56N 35°53' E 016°00'612.7
2017-Sep-15 02:26N 35°54' E 016°08'612.8
2017-Sep-15 01:58N 35°54' E 016°16'612.6
2017-Sep-15 01:30N 35°55' E 016°23'612.4
2017-Sep-15 01:00N 35°55' E 016°30'7512.0
2017-Sep-14 18:43N 36°01' E 018°03'311.8
2017-Sep-14 18:28N 36°02' E 018°07'511.9
2017-Sep-14 18:00N 36°02' E 018°13'26011.7
2017-Sep-13 19:40N 36°50' E 023°32'1212.3
2017-Sep-13 18:40N 37°02' E 023°35'312.0
2017-Sep-13 18:26N 37°04' E 023°36'511.7
2017-Sep-13 17:58N 37°10' E 023°37'1012.3
2017-Sep-13 17:09N 37°20' E 023°39'212.4
2017-Sep-13 17:00N 37°21' E 023°39'612.1
2017-Sep-13 16:30N 37°27' E 023°40'612.1
2017-Sep-13 15:59N 37°34' E 023°42'612.2
2017-Sep-13 15:30N 37°39' E 023°42'612.7
2017-Sep-13 15:00N 37°45' E 023°39'612.8
2017-Sep-13 14:30N 37°51' E 023°37'510.4
2017-Sep-13 14:00N 37°56' E 023°36'1 1.7
2017-Sep-13 13:30N 37°57' E 023°36'0 0.0
2017-Sep-13 13:00N 37°57' E 023°36'0 0.0
2017-Sep-13 12:30N 37°57' E 023°36'0 0.0
2017-Sep-13 12:00N 37°57' E 023°36'0 0.0
2017-Sep-13 11:30N 37°57' E 023°36'0 0.0
2017-Sep-13 11:00N 37°57' E 023°36'0 0.0
2017-Sep-13 10:30N 37°57' E 023°36'0 0.0
2017-Sep-13 10:00N 37°57' E 023°36'0 0.0
2017-Sep-13 09:30N 37°57' E 023°36'0 0.0
2017-Sep-13 09:00N 37°57' E 023°36'0 0.0
2017-Sep-13 08:30N 37°57' E 023°36'0 0.0
2017-Sep-13 08:00N 37°57' E 023°36'0 0.0
2017-Sep-13 07:30N 37°57' E 023°36'0 0.0
2017-Sep-13 07:00N 37°57' E 023°36'0 0.0
2017-Sep-13 06:30N 37°57' E 023°36'0 0.0
2017-Sep-13 06:00N 37°57' E 023°36'0 0.0
2017-Sep-13 05:30N 37°57' E 023°36'0 0.3
2017-Sep-13 05:00N 37°57' E 023°36'3 6.4
2017-Sep-13 04:30N 37°54' E 023°35'1 2.1
2017-Sep-13 04:00N 37°53' E 023°35'1 2.4
2017-Sep-13 03:30N 37°52' E 023°36'2 3.1
2017-Sep-13 03:00N 37°51' E 023°38'2 4.8
2017-Sep-13 02:30N 37°50' E 023°40'3 6.3
2017-Sep-13 02:00N 37°47' E 023°42'5 9.1
2017-Sep-13 01:30N 37°43' E 023°44'510.3
2017-Sep-13 00:59N 37°38' E 023°48'611.9
2017-Sep-13 00:30N 37°37' E 023°55'121 9.4
2017-Sep-12 11:44N 39°37' E 024°06'  

Dump ship's entire track history